Time;durP1;ratioP1;P1;durP2;ratioP2;P2;SDS_P1;SDS_P2;PMS_P1;PMS_P2;Temp;Humidity;BMP_temperature;BMP_pressure;BME280_temperature;BME280_humidity;BME280_pressure;Samples;Min_cycle;Max_cycle;Signal;HPM_P1;HPM_P2
2023/12/19 00:01:16;;;;;;;29.08;10.32;;;29.20;98.00;;;;;;5055475;28;20017;-75
2023/12/19 00:03:43;;;;;;;24.33;10.57;;;29.30;97.60;;;;;;5035134;28;20029;-75
2023/12/19 00:06:10;;;;;;;22.98;9.93;;;29.30;97.50;;;;;;5050989;28;20021;-75
2023/12/19 00:08:38;;;;;;;33.20;10.88;;;29.40;97.60;;;;;;5053121;28;20033;-76
2023/12/19 00:11:05;;;;;;;21.33;9.93;;;29.30;97.40;;;;;;5052783;28;20474;-75
2023/12/19 00:13:33;;;;;;;26.42;11.32;;;29.50;97.10;;;;;;5061678;28;20198;-74
2023/12/19 00:16:03;;;;;;;25.15;10.52;;;29.60;96.40;;;;;;5051263;28;20432;-75
2023/12/19 00:18:30;;;;;;;27.90;11.15;;;29.60;96.60;;;;;;5051493;28;20111;-76
2023/12/19 00:20:58;;;;;;;28.77;13.75;;;29.80;96.30;;;;;;5056832;28;20071;-75
2023/12/19 00:23:30;;;;;;;26.70;11.95;;;29.60;96.20;;;;;;5047835;28;20481;-77
2023/12/19 00:25:58;;;;;;;30.77;11.85;;;29.80;96.10;;;;;;5056306;28;20013;-75
2023/12/19 00:28:27;;;;;;;30.55;12.55;;;29.80;96.20;;;;;;5046651;28;20032;-75
2023/12/19 00:30:55;;;;;;;36.67;12.18;;;29.70;96.00;;;;;;5050003;28;20025;-74
2023/12/19 00:33:23;;;;;;;33.28;14.45;;;29.80;96.40;;;;;;5052397;28;20168;-75
2023/12/19 00:35:50;;;;;;;30.42;13.30;;;30.10;95.60;;;;;;5047640;28;20021;-75
2023/12/19 00:38:18;;;;;;;37.30;14.80;;;30.30;95.30;;;;;;5048865;28;20017;-75
2023/12/19 00:40:46;;;;;;;37.95;14.68;;;30.40;95.20;;;;;;5049562;28;20021;-75
2023/12/19 00:43:13;;;;;;;30.00;15.25;;;30.40;94.60;;;;;;5029800;28;20033;-75
2023/12/19 00:45:40;;;;;;;35.97;16.40;;;30.50;94.70;;;;;;5046601;28;20021;-75
2023/12/19 00:48:08;;;;;;;26.77;15.32;;;30.50;94.40;;;;;;5046271;28;20032;-75
2023/12/19 00:50:35;;;;;;;33.33;16.05;;;30.60;94.30;;;;;;5039575;28;20049;-75
2023/12/19 00:53:02;;;;;;;38.50;16.80;;;30.70;94.30;;;;;;5053360;28;20028;-76
2023/12/19 00:55:30;;;;;;;31.23;16.63;;;30.80;94.10;;;;;;5045678;28;20028;-75
2023/12/19 00:57:57;;;;;;;38.00;17.23;;;30.90;93.70;;;;;;5028476;28;20123;-75
2023/12/19 01:00:24;;;;;;;35.75;21.10;;;30.90;94.00;;;;;;5037109;28;20756;-76
2023/12/19 01:02:51;;;;;;;33.63;19.40;;;31.10;93.20;;;;;;5048660;28;20021;-75
2023/12/19 01:05:19;;;;;;;34.78;19.88;;;31.40;92.80;;;;;;5054911;28;20441;-74
2023/12/19 01:07:46;;;;;;;35.22;19.30;;;31.60;92.50;;;;;;5035184;28;20030;-75
2023/12/19 01:10:14;;;;;;;40.78;19.25;;;31.60;92.30;;;;;;5045592;28;20181;-75
2023/12/19 01:12:41;;;;;;;31.50;19.70;;;31.60;92.40;;;;;;5029105;28;20462;-75
2023/12/19 01:15:09;;;;;;;41.45;20.25;;;31.70;92.30;;;;;;5054349;28;20055;-75
2023/12/19 01:17:36;;;;;;;36.30;21.25;;;31.80;92.00;;;;;;5053084;28;20079;-75
2023/12/19 01:20:04;;;;;;;40.40;21.63;;;31.40;92.10;;;;;;5057466;28;20352;-75
2023/12/19 01:22:31;;;;;;;36.13;19.40;;;31.30;92.40;;;;;;5054539;28;20504;-76
2023/12/19 01:24:59;;;;;;;37.78;23.20;;;31.40;92.60;;;;;;5054175;28;20049;-73
2023/12/19 01:27:26;;;;;;;39.85;23.45;;;31.60;91.80;;;;;;5058856;28;20055;-76
2023/12/19 01:29:53;;;;;;;34.00;22.33;;;31.80;91.60;;;;;;5057075;28;20045;-75
2023/12/19 01:32:21;;;;;;;37.45;22.38;;;31.70;91.60;;;;;;5058370;28;20016;-74
2023/12/19 01:34:48;;;;;;;44.15;24.35;;;31.50;92.00;;;;;;5056015;28;20050;-74
2023/12/19 01:37:15;;;;;;;34.78;23.25;;;31.60;91.90;;;;;;5038700;28;20477;-74
2023/12/19 01:39:43;;;;;;;46.85;25.08;;;31.90;91.60;;;;;;5057185;28;20033;-74
2023/12/19 01:42:10;;;;;;;42.95;23.70;;;32.10;91.30;;;;;;5055650;28;20081;-75
2023/12/19 01:44:37;;;;;;;43.35;25.50;;;32.20;91.10;;;;;;5057561;28;20509;-74
2023/12/19 01:47:05;;;;;;;38.95;25.75;;;32.40;91.00;;;;;;5055307;28;20029;-74
2023/12/19 01:49:32;;;;;;;46.10;27.63;;;32.50;90.60;;;;;;5052191;28;20037;-74
2023/12/19 01:52:00;;;;;;;42.35;29.67;;;32.80;90.10;;;;;;5054658;28;20033;-74
2023/12/19 01:54:27;;;;;;;41.67;31.13;;;32.90;88.70;;;;;;5055904;28;20462;-73
2023/12/19 01:56:55;;;;;;;46.42;34.70;;;32.90;88.50;;;;;;5060897;28;20024;-75
2023/12/19 01:59:22;;;;;;;53.35;35.10;;;33.00;87.20;;;;;;5056136;28;20020;-74
2023/12/19 02:01:50;;;;;;;50.28;35.83;;;33.00;87.30;;;;;;5058370;28;20029;-74
2023/12/19 02:04:18;;;;;;;55.15;38.92;;;33.40;87.00;;;;;;5051570;28;20478;-74
2023/12/19 02:06:45;;;;;;;53.75;40.40;;;33.60;84.60;;;;;;5050775;28;20127;-74
2023/12/19 02:09:12;;;;;;;51.35;41.70;;;33.80;84.10;;;;;;5035104;28;20057;-75
2023/12/19 02:11:39;;;;;;;54.33;43.63;;;34.00;82.70;;;;;;5049369;28;20021;-74
2023/12/19 02:14:07;;;;;;;49.20;41.15;;;34.20;80.90;;;;;;5050525;28;20032;-73
2023/12/19 02:16:34;;;;;;;56.97;40.97;;;34.40;81.30;;;;;;5030108;28;20026;-74
2023/12/19 02:19:03;;;;;;;54.95;42.95;;;34.70;80.70;;;;;;5052497;28;20401;-75
2023/12/19 02:21:31;;;;;;;53.55;43.80;;;35.00;79.00;;;;;;5054585;28;20028;-74
2023/12/19 02:23:59;;;;;;;58.97;45.70;;;34.70;78.50;;;;;;5046107;28;20037;-74
2023/12/19 02:26:27;;;;;;;58.78;44.70;;;34.80;77.90;;;;;;5046953;28;20029;-75
2023/12/19 02:28:54;;;;;;;62.10;47.45;;;34.50;78.20;;;;;;5051966;28;20041;-74
2023/12/19 02:31:22;;;;;;;57.13;45.92;;;34.30;78.60;;;;;;5044103;28;20016;-74
2023/12/19 02:33:49;;;;;;;57.53;45.10;;;34.40;78.20;;;;;;5053340;28;20028;-75
2023/12/19 02:36:17;;;;;;;58.08;45.15;;;34.00;77.00;;;;;;5052063;28;20033;-74
2023/12/19 02:38:44;;;;;;;51.45;43.38;;;34.00;78.00;;;;;;5049752;28;20036;-75
2023/12/19 02:41:12;;;;;;;55.85;43.10;;;34.20;77.20;;;;;;5058100;28;20115;-75
2023/12/19 02:43:39;;;;;;;59.80;42.92;;;34.10;77.40;;;;;;5034038;28;20577;-75
2023/12/19 02:46:06;;;;;;;46.67;40.70;;;34.10;77.20;;;;;;5049781;28;20025;-73
2023/12/19 02:48:34;;;;;;;53.08;41.15;;;33.90;77.90;;;;;;5060724;28;20040;-75
2023/12/19 02:51:01;;;;;;;56.88;42.10;;;33.90;77.90;;;;;;5048582;28;20553;-74
2023/12/19 02:53:29;;;;;;;52.15;40.22;;;33.80;77.90;;;;;;5050535;28;20070;-75
2023/12/19 02:55:56;;;;;;;54.10;40.28;;;33.80;77.60;;;;;;5055040;28;20055;-74
2023/12/19 02:58:24;;;;;;;55.90;41.35;;;33.60;78.10;;;;;;5053997;28;20047;-74
2023/12/19 03:00:51;;;;;;;55.97;40.92;;;33.70;78.20;;;;;;5049859;28;20051;-74
2023/12/19 03:03:18;;;;;;;56.10;40.50;;;33.80;78.10;;;;;;5053703;28;20017;-74
2023/12/19 03:05:46;;;;;;;54.72;39.85;;;33.80;78.20;;;;;;5042479;28;20040;-74
2023/12/19 03:08:13;;;;;;;52.20;40.75;;;33.90;78.10;;;;;;5053471;28;20481;-74
2023/12/19 03:10:41;;;;;;;48.97;39.38;;;33.70;78.10;;;;;;5057143;28;20029;-75
2023/12/19 03:13:08;;;;;;;53.17;39.10;;;33.80;77.20;;;;;;5057597;28;20047;-74
2023/12/19 03:15:36;;;;;;;51.72;39.22;;;33.70;77.00;;;;;;5056615;28;20028;-75
2023/12/19 03:18:03;;;;;;;48.33;36.53;;;33.80;77.50;;;;;;5054570;28;20064;-74
2023/12/19 03:20:31;;;;;;;46.63;36.50;;;33.80;76.00;;;;;;5038095;28;20039;-74
2023/12/19 03:22:58;;;;;;;48.33;34.85;;;34.00;75.30;;;;;;5055916;28;20356;-75
2023/12/19 03:25:25;;;;;;;41.53;34.88;;;34.10;75.40;;;;;;5059683;28;20021;-75
2023/12/19 03:27:53;;;;;;;43.78;34.40;;;34.20;74.70;;;;;;5054619;28;20078;-75
2023/12/19 03:30:20;;;;;;;41.53;32.85;;;34.30;75.30;;;;;;5054042;28;20036;-74
2023/12/19 03:32:47;;;;;;;40.63;32.15;;;34.60;73.00;;;;;;5052423;28;20040;-74
2023/12/19 03:35:15;;;;;;;35.83;29.65;;;34.60;72.50;;;;;;5053293;28;20075;-75
2023/12/19 03:37:42;;;;;;;35.75;29.02;;;34.60;70.40;;;;;;5056991;28;20024;-75
2023/12/19 03:40:10;;;;;;;35.50;27.33;;;34.60;69.80;;;;;;5035087;28;20063;-74
2023/12/19 03:42:37;;;;;;;29.85;24.52;;;34.60;69.20;;;;;;5033805;28;20417;-74
2023/12/19 03:45:05;;;;;;;25.58;20.92;;;34.80;68.40;;;;;;5058460;28;20074;-74
2023/12/19 03:47:32;;;;;;;22.42;19.08;;;34.90;64.70;;;;;;5048311;28;20024;-74
2023/12/19 03:50:00;;;;;;;19.08;16.23;;;35.10;63.90;;;;;;5055281;28;20021;-76
2023/12/19 03:52:27;;;;;;;22.10;16.20;;;35.20;61.90;;;;;;5061013;28;20122;-74
2023/12/19 03:54:55;;;;;;;18.48;13.25;;;35.40;61.10;;;;;;5048974;28;20028;-75
2023/12/19 03:57:22;;;;;;;15.82;13.48;;;35.40;60.40;;;;;;5047548;28;20068;-75
2023/12/19 03:59:49;;;;;;;14.80;10.35;;;35.60;59.70;;;;;;5051361;28;20029;-76
2023/12/19 04:02:17;;;;;;;12.00;9.68;;;35.30;58.10;;;;;;5052818;28;20021;-74
2023/12/19 04:04:45;;;;;;;14.27;8.70;;;35.40;57.60;;;;;;5048253;28;20033;-74
2023/12/19 04:07:12;;;;;;;11.57;8.70;;;35.30;57.10;;;;;;5051270;28;20025;-73
2023/12/19 04:09:40;;;;;;;10.50;7.95;;;35.30;56.70;;;;;;5025354;28;20045;-75
2023/12/19 04:12:09;;;;;;;10.70;7.57;;;35.30;56.50;;;;;;5047482;28;20017;-76
2023/12/19 04:14:37;;;;;;;8.27;6.43;;;35.20;56.70;;;;;;5048853;28;20108;-76
2023/12/19 04:17:04;;;;;;;11.45;7.25;;;35.00;55.60;;;;;;5048335;28;20044;-73
2023/12/19 04:19:32;;;;;;;17.30;7.50;;;35.00;56.10;;;;;;5034188;28;20417;-74
2023/12/19 04:21:59;;;;;;;11.43;6.85;;;35.20;55.80;;;;;;5045971;28;20025;-75
2023/12/19 04:24:26;;;;;;;8.55;7.30;;;35.30;55.60;;;;;;5048702;28;20026;-75
2023/12/19 04:26:54;;;;;;;12.65;8.07;;;35.40;55.40;;;;;;5043222;28;20482;-76
2023/12/19 04:29:21;;;;;;;11.93;8.18;;;35.50;55.10;;;;;;5047446;28;20458;-74
2023/12/19 04:31:49;;;;;;;11.70;6.93;;;35.60;55.40;;;;;;5051725;28;20463;-75
2023/12/19 04:34:16;;;;;;;14.95;6.82;;;35.40;55.00;;;;;;5058588;28;20013;-74
2023/12/19 04:36:43;;;;;;;12.38;6.68;;;35.40;55.20;;;;;;5034298;28;20029;-74
2023/12/19 04:39:11;;;;;;;11.23;5.93;;;35.50;55.00;;;;;;5031421;28;20035;-75
2023/12/19 04:41:38;;;;;;;6.22;5.32;;;35.50;54.90;;;;;;5055140;28;20032;-72
2023/12/19 04:44:06;;;;;;;6.93;5.50;;;35.50;54.60;;;;;;5033324;28;20518;-74
2023/12/19 04:46:33;;;;;;;7.47;5.10;;;35.60;54.60;;;;;;5050658;28;20016;-75
2023/12/19 04:49:00;;;;;;;5.50;4.53;;;35.60;54.60;;;;;;5050141;28;20044;-75
2023/12/19 04:51:28;;;;;;;6.70;4.80;;;35.60;54.30;;;;;;5059280;28;20045;-75
2023/12/19 04:53:56;;;;;;;6.95;4.50;;;35.60;54.50;;;;;;5059682;28;20102;-75
2023/12/19 04:56:23;;;;;;;7.55;3.97;;;35.80;53.90;;;;;;5055533;28;20382;-75
2023/12/19 04:58:50;;;;;;;6.30;4.05;;;35.70;53.90;;;;;;5059587;28;20485;-76
2023/12/19 05:01:18;;;;;;;8.68;3.88;;;35.60;54.00;;;;;;5060598;28;20024;-76
2023/12/19 05:03:46;;;;;;;6.88;3.58;;;35.90;54.20;;;;;;5054522;28;20147;-76
2023/12/19 05:06:22;;;;;;;8.48;4.05;;;36.20;53.00;;;;;;5060214;28;20458;-75
2023/12/19 05:08:49;;;;;;;5.50;3.47;;;36.30;53.20;;;;;;5059503;28;20485;-77
2023/12/19 05:11:17;;;;;;;10.40;3.40;;;36.40;52.40;;;;;;5058637;28;20032;-76
2023/12/19 05:13:44;;;;;;;6.25;3.38;;;36.30;52.60;;;;;;5056819;28;20060;-75
2023/12/19 05:16:18;;;;;;;6.32;3.70;;;36.00;52.70;;;;;;5034664;28;20035;-76
2023/12/19 05:18:47;;;;;;;6.45;3.10;;;36.00;52.50;;;;;;5048718;28;20080;-76
2023/12/19 05:21:14;;;;;;;6.95;3.33;;;36.00;53.20;;;;;;5051014;28;20073;-76
2023/12/19 05:23:42;;;;;;;7.53;3.10;;;36.40;52.60;;;;;;5049248;28;20079;-75
2023/12/19 05:26:10;;;;;;;7.00;3.42;;;36.70;52.50;;;;;;5051556;28;20029;-75
2023/12/19 05:28:39;;;;;;;6.10;2.85;;;36.90;51.90;;;;;;5053194;28;20037;-74
2023/12/19 05:31:10;;;;;;;4.03;2.83;;;36.90;51.30;;;;;;5053324;28;20052;-75
2023/12/19 05:33:38;;;;;;;6.40;3.00;;;36.70;51.40;;;;;;5048385;28;20037;-75
2023/12/19 05:36:05;;;;;;;3.30;2.47;;;36.70;51.40;;;;;;5051196;28;20063;-75
2023/12/19 05:38:33;;;;;;;3.60;2.35;;;37.00;51.00;;;;;;5054389;28;20457;-76
2023/12/19 05:41:14;;;;;;;153.80;142.45;;;36.90;50.40;;;;;;5029834;28;20035;-75
2023/12/19 05:43:43;;;;;;;427.60;375.40;;;37.70;52.50;;;;;;5050082;28;20032;-77
2023/12/19 05:46:10;;;;;;;177.13;127.55;;;38.20;49.50;;;;;;5051607;28;20040;-76
2023/12/19 05:48:37;;;;;;;9.82;3.92;;;38.70;50.20;;;;;;5048781;28;20076;-76
2023/12/19 05:51:05;;;;;;;11.68;4.93;;;40.20;47.00;;;;;;5048020;28;20056;-75
2023/12/19 05:53:32;;;;;;;3.97;2.22;;;38.60;49.30;;;;;;5048654;28;20092;-73
2023/12/19 05:56:00;;;;;;;4.32;2.30;;;38.20;48.60;;;;;;5052029;28;20040;-75
2023/12/19 05:58:27;;;;;;;6.50;2.45;;;37.80;48.50;;;;;;5048656;28;20033;-75
2023/12/19 06:00:55;;;;;;;8.45;4.90;;;37.80;48.80;;;;;;5044096;28;20052;-76
2023/12/19 06:03:23;;;;;;;246.55;188.60;;;38.10;48.40;;;;;;5049449;28;20033;-75
2023/12/19 06:05:50;;;;;;;10.95;2.97;;;38.40;49.40;;;;;;5054495;28;20107;-75
2023/12/19 06:08:18;;;;;;;4.32;2.30;;;37.60;48.60;;;;;;5049366;28;20179;-75
2023/12/19 06:10:47;;;;;;;4.53;2.58;;;37.30;49.50;;;;;;5035202;28;20040;-74
2023/12/19 06:13:14;;;;;;;8.27;4.43;;;37.20;50.20;;;;;;5049622;28;20037;-75
2023/12/19 06:15:42;;;;;;;74.22;64.90;;;36.80;49.80;;;;;;5052661;28;20489;-75
2023/12/19 06:18:09;;;;;;;11.23;8.82;;;36.80;50.90;;;;;;5059966;28;20017;-75
2023/12/19 06:20:37;;;;;;;24.27;14.45;;;36.40;51.50;;;;;;5050740;28;20479;-76
2023/12/19 06:23:04;;;;;;;28.83;18.58;;;36.50;53.20;;;;;;5050265;28;20067;-76
2023/12/19 06:25:32;;;;;;;32.83;22.23;;;36.30;55.50;;;;;;5057148;28;20112;-75
2023/12/19 06:28:03;;;;;;;26.92;20.80;;;36.00;57.30;;;;;;5036300;28;20080;-75
2023/12/19 06:30:33;;;;;;;26.92;21.75;;;36.30;57.30;;;;;;5057436;28;20439;-75
2023/12/19 06:33:01;;;;;;;26.92;20.73;;;35.90;57.80;;;;;;5052156;28;20044;-75
2023/12/19 06:35:30;;;;;;;27.27;23.02;;;35.90;57.20;;;;;;5045568;28;20496;-75
2023/12/19 06:37:58;;;;;;;30.98;21.92;;;35.40;58.50;;;;;;5050975;28;20040;-76
2023/12/19 06:40:25;;;;;;;28.80;22.10;;;35.10;59.40;;;;;;5050364;28;20028;-76
2023/12/19 06:42:53;;;;;;;30.80;23.15;;;34.90;59.80;;;;;;5058452;28;20608;-75
2023/12/19 06:45:21;;;;;;;25.63;22.15;;;34.80;60.40;;;;;;5031976;28;20425;-75
2023/12/19 06:47:48;;;;;;;27.05;22.00;;;34.60;61.20;;;;;;5049880;28;20077;-76
2023/12/19 06:50:18;;;;;;;31.38;22.02;;;34.30;61.60;;;;;;5030572;28;20055;-77
2023/12/19 06:52:46;;;;;;;30.90;23.58;;;34.10;61.90;;;;;;5044197;28;20033;-76
2023/12/19 06:55:14;;;;;;;28.20;23.35;;;33.90;61.60;;;;;;5033089;28;20031;-76
2023/12/19 06:57:41;;;;;;;31.48;23.50;;;33.70;61.60;;;;;;5058086;28;20045;-75
2023/12/19 07:00:09;;;;;;;30.52;24.05;;;33.40;61.30;;;;;;5052260;28;20029;-75
2023/12/19 07:02:41;;;;;;;29.90;22.70;;;33.30;61.10;;;;;;5052418;28;20024;-78
2023/12/19 07:05:09;;;;;;;29.85;23.25;;;33.10;61.30;;;;;;5051374;28;20021;-75
2023/12/19 07:07:37;;;;;;;34.95;22.88;;;33.10;61.70;;;;;;5032071;28;20029;-75
2023/12/19 07:10:04;;;;;;;29.48;22.70;;;32.90;62.20;;;;;;5055926;28;20029;-71
2023/12/19 07:12:32;;;;;;;32.13;22.80;;;32.80;62.70;;;;;;5033089;28;20036;-75
2023/12/19 07:15:06;;;;;;;27.17;21.58;;;32.90;62.80;;;;;;5032165;28;20166;-74
2023/12/19 07:17:37;;;;;;;28.35;22.10;;;32.90;62.90;;;;;;5055576;28;20190;-75
2023/12/19 07:20:05;;;;;;;28.35;21.15;;;32.90;63.20;;;;;;5048349;28;20354;-75
2023/12/19 07:22:32;;;;;;;28.80;20.73;;;32.90;63.20;;;;;;5051206;28;20071;-73
2023/12/19 07:25:00;;;;;;;26.08;20.38;;;32.70;63.40;;;;;;5052736;28;20492;-74
2023/12/19 07:27:27;;;;;;;29.10;20.38;;;32.60;63.60;;;;;;5048669;28;20026;-74
2023/12/19 07:29:58;;;;;;;24.75;19.98;;;32.50;63.70;;;;;;5027355;28;20037;-74
2023/12/19 07:32:25;;;;;;;27.17;19.70;;;32.60;63.90;;;;;;5046032;28;20036;-76
2023/12/19 07:34:57;;;;;;;25.90;19.08;;;32.60;63.90;;;;;;5043166;28;20025;-74
2023/12/19 07:37:24;;;;;;;23.63;18.02;;;32.50;64.20;;;;;;5049211;28;20123;-74
2023/12/19 07:39:51;;;;;;;23.88;17.48;;;32.40;64.40;;;;;;5044283;28;20036;-74
2023/12/19 07:42:22;;;;;;;21.88;18.00;;;32.20;64.50;;;;;;5045331;28;20104;-74
2023/12/19 07:44:51;;;;;;;21.83;16.85;;;32.10;64.90;;;;;;5047421;28;20021;-75
2023/12/19 07:47:19;;;;;;;22.50;17.00;;;31.80;65.50;;;;;;5049020;28;20028;-75
2023/12/19 07:49:52;;;;;;;26.35;17.25;;;31.70;65.90;;;;;;5048416;28;20036;-75
2023/12/19 07:52:19;;;;;;;23.23;16.55;;;31.60;66.30;;;;;;5033581;28;20044;-75
2023/12/19 07:54:56;;;;;;;23.23;15.25;;;31.40;66.50;;;;;;5033537;28;20040;-75
2023/12/19 07:57:23;;;;;;;;;;;31.50;66.80;;;;;;5045636;28;20029;-73
2023/12/19 07:59:50;;;;;;;26.47;16.33;;;31.50;67.00;;;;;;5044346;28;19913;-74
2023/12/19 08:02:17;;;;;;;21.65;15.40;;;31.60;66.90;;;;;;5048989;28;20032;-74
2023/12/19 08:04:45;;;;;;;20.45;15.52;;;31.60;66.60;;;;;;5049215;28;20025;-73
2023/12/19 08:07:12;;;;;;;22.05;14.52;;;31.60;66.70;;;;;;5044783;28;20016;-73
2023/12/19 08:09:43;;;;;;;20.52;14.88;;;31.60;66.30;;;;;;5054999;28;20504;-74
2023/12/19 08:12:10;;;;;;;22.25;14.73;;;31.70;66.20;;;;;;5053062;28;20440;-74
2023/12/19 08:14:38;;;;;;;19.88;14.32;;;31.70;65.90;;;;;;5050404;28;20020;-74
2023/12/19 08:17:05;;;;;;;21.33;15.05;;;31.70;65.70;;;;;;5037690;28;20108;-74
2023/12/19 08:19:32;;;;;;;16.38;13.85;;;31.60;65.30;;;;;;5051435;28;20390;-75
2023/12/19 08:22:00;;;;;;;21.13;14.77;;;31.60;65.00;;;;;;5039427;28;20117;-74
2023/12/19 08:24:27;;;;;;;19.15;14.30;;;31.50;65.40;;;;;;5051686;28;20025;-74
2023/12/19 08:26:54;;;;;;;18.30;14.52;;;31.50;65.60;;;;;;5050580;28;20110;-73
2023/12/19 08:29:25;;;;;;;16.25;13.30;;;31.40;65.30;;;;;;5033727;28;20044;-73
2023/12/19 08:31:55;;;;;;;22.42;14.07;;;31.40;65.30;;;;;;5035072;28;20776;-74
2023/12/19 08:34:22;;;;;;;18.13;14.02;;;31.30;65.80;;;;;;5049059;28;20517;-74
2023/12/19 08:36:50;;;;;;;19.42;13.63;;;31.40;65.00;;;;;;5049927;28;20482;-75
2023/12/19 08:39:17;;;;;;;18.63;12.95;;;31.30;64.80;;;;;;5054801;28;20469;-73
2023/12/19 08:41:48;;;;;;;18.25;13.45;;;31.30;64.80;;;;;;5049164;28;20447;-74
2023/12/19 08:44:15;;;;;;;21.27;13.20;;;31.30;65.00;;;;;;5051836;28;20070;-75
2023/12/19 08:46:43;;;;;;;18.77;12.65;;;31.20;64.80;;;;;;5052899;28;20036;-76
2023/12/19 08:49:10;;;;;;;16.25;13.48;;;31.10;64.90;;;;;;5054020;28;20040;-75
2023/12/19 08:51:38;;;;;;;18.52;13.10;;;31.10;65.30;;;;;;5025786;28;20478;-74
2023/12/19 08:54:09;;;;;;;18.25;13.10;;;31.10;65.40;;;;;;5032840;28;20033;-75
2023/12/19 08:56:37;;;;;;;19.02;12.10;;;31.00;65.60;;;;;;5017568;28;20053;-73
2023/12/19 08:59:04;;;;;;;18.98;12.23;;;31.00;65.50;;;;;;5017777;28;21231;-75
2023/12/19 09:01:32;;;;;;;17.95;12.52;;;30.90;65.60;;;;;;5033451;28;20029;-76
2023/12/19 09:04:00;;;;;;;17.85;11.98;;;30.90;65.10;;;;;;5029105;28;20060;-74
2023/12/19 09:06:32;;;;;;;18.17;12.23;;;30.90;65.20;;;;;;5026707;28;20458;-74
2023/12/19 09:08:59;;;;;;;15.82;12.55;;;31.00;65.00;;;;;;5031251;28;20092;-73
2023/12/19 09:11:26;;;;;;;17.10;11.50;;;30.90;65.20;;;;;;5028120;28;20029;-74
2023/12/19 09:13:54;;;;;;;16.70;11.02;;;30.80;65.40;;;;;;5018086;28;20122;-74
2023/12/19 09:16:21;;;;;;;16.90;12.18;;;30.80;65.30;;;;;;5023806;28;20064;-75
2023/12/19 09:18:49;;;;;;;18.80;11.27;;;30.80;65.70;;;;;;5025243;28;20386;-74
2023/12/19 09:21:16;;;;;;;15.18;11.10;;;30.70;65.80;;;;;;5022405;28;20071;-74
2023/12/19 09:23:44;;;;;;;17.25;11.77;;;30.70;66.30;;;;;;5022449;28;20029;-75
2023/12/19 09:26:11;;;;;;;15.88;11.45;;;30.70;66.10;;;;;;5027285;28;20524;-75
2023/12/19 09:28:39;;;;;;;18.58;11.90;;;30.70;66.10;;;;;;5028372;28;20128;-74
2023/12/19 09:31:08;;;;;;;14.38;11.68;;;30.70;66.10;;;;;;5026424;28;20504;-75
2023/12/19 09:33:40;;;;;;;16.92;11.05;;;30.70;66.90;;;;;;5009534;28;20037;-74
2023/12/19 09:36:09;;;;;;;14.18;10.75;;;31.00;66.10;;;;;;5031955;28;20030;-75
2023/12/19 09:38:37;;;;;;;17.50;8.73;;;30.80;67.40;;;;;;5036029;28;20120;-73
2023/12/19 09:41:06;;;;;;;12.05;7.40;;;30.20;72.00;;;;;;5034340;28;20034;-74
2023/12/19 09:43:33;;;;;;;11.10;6.20;;;29.60;74.00;;;;;;5023253;28;20494;-74
2023/12/19 09:46:04;;;;;;;10.32;4.85;;;29.20;75.80;;;;;;5030078;28;20079;-73
2023/12/19 09:48:33;;;;;;;20.30;4.93;;;28.50;77.50;;;;;;5013321;28;20045;-74
2023/12/19 09:51:05;;;;;;;11.45;3.92;;;28.00;79.30;;;;;;5044795;28;20056;-74
2023/12/19 09:53:36;;;;;;;7.43;3.42;;;27.40;82.80;;;;;;5052144;28;20383;-74
2023/12/19 09:56:04;;;;;;;9.07;3.88;;;26.90;85.70;;;;;;5060819;28;20024;-73
2023/12/19 09:58:33;;;;;;;5.50;3.40;;;26.70;88.20;;;;;;5054604;28;20097;-73
2023/12/19 10:01:00;;;;;;;11.82;3.70;;;26.60;89.40;;;;;;5052483;28;20032;-75
2023/12/19 10:03:28;;;;;;;11.95;3.95;;;26.50;90.20;;;;;;5039364;28;20087;-75
2023/12/19 10:05:57;;;;;;;11.23;3.97;;;26.40;90.60;;;;;;5049052;28;20036;-75
2023/12/19 10:08:24;;;;;;;8.23;4.10;;;26.30;90.90;;;;;;5053618;28;20031;-75
2023/12/19 10:10:57;;;;;;;10.55;3.90;;;26.10;91.20;;;;;;5058207;28;20087;-75
2023/12/19 10:13:36;;;;;;;13.93;5.32;;;26.10;91.40;;;;;;5053281;28;20025;-76
2023/12/19 10:16:17;;;;;;;14.02;5.13;;;26.20;91.50;;;;;;5055594;28;20041;-76
2023/12/19 10:18:53;;;;;;;10.20;3.97;;;26.10;91.60;;;;;;5044218;28;20104;-76
2023/12/19 10:21:24;;;;;;;10.73;4.05;;;26.10;91.90;;;;;;5050297;28;20474;-75
2023/12/19 10:23:52;;;;;;;9.57;4.00;;;26.10;92.40;;;;;;5053462;28;20060;-75
2023/12/19 10:26:29;;;;;;;10.93;4.55;;;25.90;93.50;;;;;;5049809;28;20025;-75
2023/12/19 10:28:57;;;;;;;18.65;4.47;;;25.50;94.60;;;;;;5055055;28;20040;-74
2023/12/19 10:31:25;;;;;;;18.73;5.80;;;25.40;95.90;;;;;;5052651;28;20029;-77
2023/12/19 10:33:56;;;;;;;18.08;5.65;;;25.00;97.80;;;;;;5048971;28;20048;-76
2023/12/19 10:36:27;;;;;;;12.07;4.80;;;24.30;99.90;;;;;;5051443;28;20024;-76
2023/12/19 10:38:56;;;;;;;16.77;5.15;;;23.70;99.90;;;;;;5052843;28;20052;-76
2023/12/19 10:41:27;;;;;;;15.38;5.30;;;23.20;99.90;;;;;;5053329;28;20414;-76
2023/12/19 10:43:57;;;;;;;15.85;5.13;;;22.90;99.90;;;;;;5052242;28;20091;-76
2023/12/19 10:46:29;;;;;;;14.75;4.82;;;22.90;99.90;;;;;;5047151;28;20086;-76
2023/12/19 10:49:01;;;;;;;14.13;4.68;;;22.90;99.90;;;;;;5031496;28;20444;-76
2023/12/19 10:51:30;;;;;;;9.85;4.65;;;22.80;99.90;;;;;;5053482;28;20040;-76
2023/12/19 10:54:16;;;;;;;10.90;3.85;;;22.90;99.90;;;;;;5030946;28;20478;-76
2023/12/19 10:57:02;;;;;;;12.30;4.30;;;22.90;99.90;;;;;;5046136;28;20029;-76
2023/12/19 10:59:34;;;;;;;12.60;4.70;;;23.00;99.90;;;;;;5041846;28;20473;-75
2023/12/19 11:02:13;;;;;;;8.70;4.10;;;23.00;99.90;;;;;;5046435;28;20056;-76
2023/12/19 11:04:54;;;;;;;11.90;3.92;;;22.90;99.90;;;;;;5033778;28;20128;-76
2023/12/19 11:07:26;;;;;;;13.27;3.92;;;22.90;99.90;;;;;;5049803;28;20037;-76
2023/12/19 11:10:05;;;;;;;11.98;3.90;;;22.80;99.90;;;;;;5046357;28;20045;-76
2023/12/19 11:12:34;;;;;;;13.27;4.40;;;22.80;99.90;;;;;;5031482;28;20025;-76
2023/12/19 11:15:02;;;;;;;12.65;4.00;;;22.80;99.90;;;;;;5040481;28;20025;-77
2023/12/19 11:17:36;;;;;;;16.35;4.18;;;22.90;99.90;;;;;;5045638;28;20021;-78
2023/12/19 11:20:26;;;;;;;17.08;3.75;;;23.00;99.90;;;;;;5061478;28;20028;-78
2023/12/19 11:23:10;;;;;;;19.05;3.95;;;23.00;99.90;;;;;;5028750;28;21418;-76
2023/12/19 11:25:57;;;;;;;17.40;4.72;;;22.90;99.90;;;;;;5032203;28;20064;-76
2023/12/19 11:28:26;;;;;;;20.48;4.38;;;23.10;99.90;;;;;;5052350;28;20025;-76
2023/12/19 11:30:53;;;;;;;17.85;4.55;;;23.10;99.90;;;;;;5051007;28;20021;-77
2023/12/19 11:33:31;;;;;;;18.00;4.90;;;23.10;99.90;;;;;;5057966;28;20024;-76
2023/12/19 11:36:11;;;;;;;23.48;5.78;;;23.00;99.90;;;;;;5049230;28;20037;-76
2023/12/19 11:38:38;;;;;;;20.45;5.80;;;22.90;99.90;;;;;;5047056;28;20025;-76
2023/12/19 11:41:06;;;;;;;16.23;5.15;;;22.90;99.90;;;;;;5057089;28;20087;-75
2023/12/19 11:43:35;;;;;;;21.10;5.00;;;23.00;99.90;;;;;;5054940;28;20028;-77
2023/12/19 11:46:11;;;;;;;23.42;4.40;;;23.00;99.90;;;;;;5052390;28;20085;-76
2023/12/19 11:48:40;;;;;;;12.63;4.22;;;23.10;99.90;;;;;;5052607;28;20040;-76
2023/12/19 11:51:10;;;;;;;21.55;5.78;;;23.00;99.90;;;;;;5029062;28;20052;-76
2023/12/19 11:53:41;;;;;;;15.20;4.45;;;23.00;99.90;;;;;;5030821;28;20024;-77
2023/12/19 11:56:13;;;;;;;15.23;4.10;;;23.00;99.90;;;;;;5050977;28;20070;-76
2023/12/19 11:58:52;;;;;;;19.45;5.40;;;23.10;99.90;;;;;;5049452;28;20036;-76
2023/12/19 12:01:22;;;;;;;14.40;4.88;;;23.10;99.90;;;;;;5054628;28;20025;-76
2023/12/19 12:03:50;;;;;;;19.17;5.18;;;23.30;99.90;;;;;;5050005;28;20058;-77
2023/12/19 12:06:20;;;;;;;25.88;5.15;;;23.10;99.90;;;;;;5048333;28;20059;-76
2023/12/19 12:08:54;;;;;;;21.17;4.70;;;23.20;99.90;;;;;;5052772;28;20372;-77
2023/12/19 12:11:22;;;;;;;27.95;5.65;;;23.10;99.90;;;;;;5050336;28;20029;-77
2023/12/19 12:14:04;;;;;;;22.20;5.68;;;23.10;99.90;;;;;;5029431;28;20094;-74
2023/12/19 12:16:42;;;;;;;23.02;5.20;;;23.10;99.90;;;;;;5034723;28;20128;-76
2023/12/19 12:19:19;;;;;;;24.77;5.63;;;23.10;99.90;;;;;;5047837;28;20044;-76
2023/12/19 12:21:51;;;;;;;25.27;5.38;;;23.10;99.90;;;;;;5047973;28;20037;-78
2023/12/19 12:24:22;;;;;;;24.10;5.55;;;23.20;99.90;;;;;;5053870;28;20082;-77
2023/12/19 12:26:51;;;;;;;21.08;5.35;;;23.10;99.90;;;;;;5050469;28;20029;-77
2023/12/19 12:29:19;;;;;;;27.52;5.85;;;23.20;99.90;;;;;;5046309;28;20040;-77
2023/12/19 12:31:49;;;;;;;21.42;5.07;;;23.20;99.90;;;;;;5045927;28;20469;-75
2023/12/19 12:34:16;;;;;;;16.50;4.45;;;23.30;99.90;;;;;;5045862;28;20040;-77
2023/12/19 12:36:49;;;;;;;16.98;4.82;;;23.20;99.90;;;;;;5042920;28;20059;-75
2023/12/19 12:39:20;;;;;;;19.33;5.47;;;23.20;99.90;;;;;;5045121;28;20131;-76
2023/12/19 12:41:47;;;;;;;20.77;4.38;;;23.00;99.90;;;;;;5039444;28;20499;-76